Warning: Javascript must be enabled to use all the features on this page!


Page Loading - Please Wait...

Click to hideNews Bulletins

Peak Streamflow for the Nation

USGS 14312000 SOUTH UMPQUA RIVER NEAR BROCKWAY, OR

Douglas County, Oregon
Hydrologic Unit Code 17100302
Latitude  43°08'00", Longitude 123°23'50" NAD27
Drainage area 1,670  square miles
Gage datum 462.52 feet above NGVD29
Output formats
Table
Graph
Tab-separated file
peakfq (watstore) format
Reselect output format
Water
Year
Date Gage
Height
(feet)
Stream-
flow
(cfs)
1906 1906-01-16 21.26 46,400
1907 1907-01-04 29.16 71,000
1908 1907-12-26 22.66 51,700
1909 1909-01-16 21.86 48,700
1910 1909-11-23 27.66 70,700
1911 1910-11-29 17.36 36,100
1912 1912-02-18 17.36 32,700
1924 1923-12-07 12.356 13,300
1925 1924-12-30 20.92 38,600
1926 1926-02-03 19.80 35,000
1927 1927-02-21 31.20 89,500
1942 1942-02-04 14.616 20,000
1943 1942-12-31 28.50 70,000
1944 1943-11-04 12.50 14,600
1945 1945-02-14 18.32 31,500
1946 1945-12-29 28.20 67,700
1947 1946-12-14 14.22 19,300
1948 1948-01-07 29.00 71,400
1949 1948-12-12 20.45 38,200
1950 1950-01-23 20.61 38,800
1951 1950-10-29 32.40 102,000
1952 1952-02-02 19.09 38,500
1953 1953-01-18 30.36 89,200
1954 1953-11-23 29.03 81,800
1955 1954-12-31 16.31 28,800
1956 1955-12-22 31.55 91,300
1957 1956-12-11 26.26 68,200
1958 1958-01-29 26.01 66,100
1959 1959-01-12 24.08 58,300
1960 1960-02-09 20.43 43,300
1961 1961-02-11 21.42 47,000
1962 1961-11-23 25.50 63,300
1963 1962-12-02 21.25 46,400
1964 1964-01-20 26.84 69,000
1965 1964-12-23 34.28 125,000
1966 1966-01-04 27.98 74,100
1967 1967-01-28 18.93 38,700
1968 1968-02-23 17.72 34,500
1969 1969-01-13 21.38 46,800
1970 1969-12-21 22.902 52,700
1971 1971-01-17 30.626 86,600
1972 1972-03-02 25.74 64,300
1973 1972-12-22 12.01 14,600
1974 1974-01-16 32.64 105,000
1975 1975-03-25 18.91 38,700
1976 1976-01-08 20.13 42,200
1977 1977-03-09 8.17 4,810
1978 1977-11-24 19.90 42,100
1979 1979-01-11 18.00 35,400
1980 1980-01-13 18.92 38,700
1981 1980-12-02 18.11 35,800
1982 1981-12-06 28.74 77,600
1983 1983-02-18 30.32 85,200
1984 1984-02-13 25.74 64,800
1985 1984-11-28 18.29 37,000
1986 1986-02-23 20.66 45,600
1987 1987-02-02 17.17 33,100
1988 1988-01-15 14.91 24,600
1989 1989-01-10 21.40 48,300
1990 1990-01-08 15.05 25,200
1991 1991-03-05 16.602 31,000
1992 1991-12-07 14.49 22,900
1993 1993-01-20 18.28 37,000
1994 1993-12-09 10.56 10,100
1995 1995-01-09 25.08 62,300
1996 1995-12-12 20.97 46,700
1997 1996-12-08 28.46 76,300
1998 1998-02-21 16.97 32,400
1999 1998-11-21 18.24 36,800
2000 2000-01-11 20.82 46,200
2001 2001-03-28 8.38 5,220
2002 2001-12-14 16.05 29,000
2003 2002-12-31 20.00 43,200
2004 2003-12-14 16.69 31,300
2005 2004-12-09 17.50 34,300
2006 2005-12-31 26.62 73,400
2007 2006-12-26 19.71 46,000
2008 2008-01-05 17.85 39,400
2009 2008-12-29 21.79 53,800
2010 2010-01-01 14.10 23,400
2011 2011-01-17 19.07 43,900
2012 2012-03-31 19.81 46,400
2013 2012-12-02 21.59 53,000
2014 2014-02-15 18.31 39,600
2015 2015-02-06 23.50 61,000
2016 2015-12-13 24.27 64,000
2017 2016-12-15 24.65 65,500
2018 2018-03-24 10.97 12,100
2019 2019-04-09 20.15 48,400
2020 2020-01-26 12.28 16,000
2021 2021-02-16 11.82 14,500
2022 2022-01-04 15.02 25,300
?
  Peak Gage-Height Qualification Codes.